DLH1944 EDDM-EDDB
Flight info
| Callsign | DLH1944 |
|---|---|
| Flight time | 0h 48m |
| Altitude | 29000 |
| Route | AKINI1N AKINI Y104 MAMOR L132 RUDNO T203 TIVDA DCT ETVIS DCT NAVEK DCT GAVLI/N0429F300 T203 ATGUP ATGUP1R |
| Aircraft | A321/M-SDE3FGHIRWY/LB1 |
Departure
| Time | 2026-05-07 05:31 |
|---|---|
| Airport | Munich Airport (EDDM) |
Arrival
| Time | 2026-05-07 06:19 |
|---|---|
| Airport | Berlin Brandenburg Airport (EDDB) |
| Time | Latitude | Longitude | Altitude | Speed | Heading |
|---|---|---|---|---|---|
| 2026-05-07 05:05 | 48.35246 | 11.79787 | 1477 ft | 0 kts | 83° |
| 2026-05-07 05:10 | 48.35244 | 11.79767 | 1468 ft | 2 kts | 82° |
| 2026-05-07 05:10 | 48.35242 | 11.79742 | 1465 ft | 2 kts | 82° |
| 2026-05-07 05:10 | 48.35240 | 11.79718 | 1466 ft | 2 kts | 82° |
| 2026-05-07 05:11 | 48.35238 | 11.79693 | 1469 ft | 2 kts | 81° |
| 2026-05-07 05:11 | 48.35235 | 11.79669 | 1467 ft | 2 kts | 77° |
| 2026-05-07 05:11 | 48.35231 | 11.79644 | 1467 ft | 2 kts | 59° |
| 2026-05-07 05:11 | 48.35219 | 11.79630 | 1468 ft | 2 kts | 351° |
| 2026-05-07 05:12 | 48.35215 | 11.79631 | 1470 ft | 0 kts | 353° |
| 2026-05-07 05:14 | 48.35216 | 11.79631 | 1470 ft | 1 kts | 353° |
| 2026-05-07 05:14 | 48.35248 | 11.79626 | 1470 ft | 8 kts | 355° |
| 2026-05-07 05:14 | 48.35315 | 11.79615 | 1464 ft | 8 kts | 353° |
| 2026-05-07 05:15 | 48.35380 | 11.79603 | 1465 ft | 11 kts | 352° |
| 2026-05-07 05:15 | 48.35442 | 11.79533 | 1466 ft | 13 kts | 312° |
| 2026-05-07 05:15 | 48.35527 | 11.79507 | 1469 ft | 14 kts | 356° |
| 2026-05-07 05:15 | 48.35632 | 11.79492 | 1463 ft | 16 kts | 354° |
| 2026-05-07 05:16 | 48.35735 | 11.79474 | 1463 ft | 13 kts | 353° |
| 2026-05-07 05:16 | 48.35835 | 11.79457 | 1462 ft | 14 kts | 353° |
| 2026-05-07 05:16 | 48.35930 | 11.79496 | 1467 ft | 16 kts | 24° |
| 2026-05-07 05:16 | 48.36044 | 11.79488 | 1466 ft | 16 kts | 353° |
| 2026-05-07 05:17 | 48.36107 | 11.79513 | 1460 ft | 8 kts | 68° |
| 2026-05-07 05:17 | 48.36116 | 11.79608 | 1467 ft | 10 kts | 83° |
| 2026-05-07 05:17 | 48.36126 | 11.79729 | 1461 ft | 13 kts | 83° |
| 2026-05-07 05:17 | 48.36136 | 11.79871 | 1458 ft | 15 kts | 84° |
| 2026-05-07 05:18 | 48.36148 | 11.80033 | 1466 ft | 17 kts | 83° |
| 2026-05-07 05:18 | 48.36162 | 11.80217 | 1465 ft | 19 kts | 83° |
| 2026-05-07 05:18 | 48.36177 | 11.80420 | 1465 ft | 20 kts | 84° |
| 2026-05-07 05:18 | 48.36195 | 11.80640 | 1464 ft | 22 kts | 83° |
| 2026-05-07 05:19 | 48.36213 | 11.80877 | 1463 ft | 24 kts | 84° |
| 2026-05-07 05:19 | 48.36233 | 11.81131 | 1462 ft | 25 kts | 83° |
| 2026-05-07 05:19 | 48.36254 | 11.81401 | 1461 ft | 27 kts | 83° |
| 2026-05-07 05:19 | 48.36276 | 11.81687 | 1460 ft | 26 kts | 83° |
| 2026-05-07 05:20 | 48.36308 | 11.81917 | 1459 ft | 11 kts | 36° |
| 2026-05-07 05:20 | 48.36374 | 11.81997 | 1458 ft | 13 kts | 32° |
| 2026-05-07 05:20 | 48.36467 | 11.82000 | 1454 ft | 13 kts | 354° |
| 2026-05-07 05:20 | 48.36476 | 11.81999 | 1456 ft | 0 kts | 354° |
| 2026-05-07 05:29 | 48.36489 | 11.81996 | 1459 ft | 7 kts | 354° |
| 2026-05-07 05:29 | 48.36559 | 11.81984 | 1459 ft | 1 kts | 352° |
| 2026-05-07 05:29 | 48.36562 | 11.81983 | 1459 ft | 0 kts | 352° |
| 2026-05-07 05:29 | 48.36569 | 11.81982 | 1459 ft | 2 kts | 352° |
| 2026-05-07 05:30 | 48.36640 | 11.81967 | 1459 ft | 14 kts | 351° |
| 2026-05-07 05:30 | 48.36670 | 11.81852 | 1460 ft | 14 kts | 264° |
| 2026-05-07 05:30 | 48.36642 | 11.81490 | 1461 ft | 70 kts | 263° |
| 2026-05-07 05:30 | 48.36558 | 11.80404 | 1464 ft | 136 kts | 263° |
| 2026-05-07 05:31 | 48.36435 | 11.78781 | 1754 ft | 162 kts | 262° |
| 2026-05-07 05:31 | 48.36309 | 11.77103 | 2618 ft | 161 kts | 262° |
| 2026-05-07 05:31 | 48.36183 | 11.75468 | 3471 ft | 152 kts | 263° |
| 2026-05-07 05:31 | 48.36113 | 11.73943 | 4308 ft | 140 kts | 276° |
| 2026-05-07 05:32 | 48.36500 | 11.72599 | 4850 ft | 154 kts | 308° |
| 2026-05-07 05:32 | 48.37571 | 11.71875 | 5131 ft | 194 kts | 353° |
| 2026-05-07 05:32 | 48.38955 | 11.72536 | 5420 ft | 226 kts | 24° |
| 2026-05-07 05:32 | 48.40333 | 11.73949 | 5644 ft | 253 kts | 34° |
| 2026-05-07 05:33 | 48.41774 | 11.75697 | 5972 ft | 278 kts | 36° |
| 2026-05-07 05:33 | 48.43295 | 11.77611 | 6590 ft | 289 kts | 37° |
| 2026-05-07 05:33 | 48.44854 | 11.79559 | 7340 ft | 293 kts | 36° |
| 2026-05-07 05:33 | 48.46451 | 11.81507 | 8125 ft | 297 kts | 36° |
| 2026-05-07 05:34 | 48.48083 | 11.83453 | 8869 ft | 301 kts | 36° |
| 2026-05-07 05:34 | 48.49748 | 11.85408 | 9629 ft | 305 kts | 36° |
| 2026-05-07 05:34 | 48.51433 | 11.87371 | 10340 ft | 309 kts | 36° |
| 2026-05-07 05:34 | 48.53171 | 11.89348 | 10877 ft | 319 kts | 31° |
| 2026-05-07 05:35 | 48.55231 | 11.90827 | 11038 ft | 339 kts | 20° |
| 2026-05-07 05:35 | 48.57486 | 11.92190 | 11289 ft | 356 kts | 19° |
| 2026-05-07 05:35 | 48.59814 | 11.93574 | 11869 ft | 362 kts | 19° |
| 2026-05-07 05:35 | 48.62171 | 11.94976 | 12530 ft | 366 kts | 19° |
| 2026-05-07 05:36 | 48.64552 | 11.96398 | 13195 ft | 370 kts | 20° |
| 2026-05-07 05:36 | 48.66951 | 11.97843 | 13861 ft | 373 kts | 20° |
| 2026-05-07 05:36 | 48.69368 | 11.99308 | 14462 ft | 376 kts | 20° |
| 2026-05-07 05:36 | 48.71816 | 12.00794 | 15071 ft | 380 kts | 20° |
| 2026-05-07 05:37 | 48.74277 | 12.02290 | 15667 ft | 383 kts | 21° |
| 2026-05-07 05:37 | 48.76765 | 12.03808 | 16272 ft | 387 kts | 21° |
| 2026-05-07 05:37 | 48.79272 | 12.05339 | 16868 ft | 390 kts | 21° |
| 2026-05-07 05:37 | 48.81793 | 12.06879 | 17451 ft | 393 kts | 21° |
| 2026-05-07 05:38 | 48.84334 | 12.08430 | 18035 ft | 396 kts | 21° |
| 2026-05-07 05:38 | 48.86899 | 12.09994 | 18564 ft | 399 kts | 21° |
| 2026-05-07 05:38 | 48.89483 | 12.11574 | 19062 ft | 402 kts | 21° |
| 2026-05-07 05:38 | 48.92090 | 12.13172 | 19553 ft | 405 kts | 21° |
| 2026-05-07 05:39 | 48.94710 | 12.14780 | 20025 ft | 408 kts | 21° |
| 2026-05-07 05:39 | 48.97350 | 12.16406 | 20504 ft | 411 kts | 21° |
| 2026-05-07 05:39 | 49.00014 | 12.18049 | 20982 ft | 414 kts | 21° |
| 2026-05-07 05:39 | 49.02695 | 12.19702 | 21450 ft | 417 kts | 21° |
| 2026-05-07 05:40 | 49.05395 | 12.21366 | 21921 ft | 420 kts | 21° |
| 2026-05-07 05:40 | 49.08110 | 12.23036 | 22390 ft | 422 kts | 21° |
| 2026-05-07 05:40 | 49.10844 | 12.24716 | 22855 ft | 425 kts | 21° |
| 2026-05-07 05:40 | 49.13597 | 12.26417 | 23317 ft | 428 kts | 22° |
| 2026-05-07 05:41 | 49.16362 | 12.28129 | 23734 ft | 431 kts | 22° |
| 2026-05-07 05:41 | 49.19159 | 12.29859 | 24091 ft | 434 kts | 22° |
| 2026-05-07 05:41 | 49.21965 | 12.31602 | 24445 ft | 437 kts | 22° |
| 2026-05-07 05:41 | 49.24796 | 12.33368 | 24803 ft | 441 kts | 22° |
| 2026-05-07 05:42 | 49.27644 | 12.35144 | 25152 ft | 444 kts | 22° |
| 2026-05-07 05:42 | 49.30513 | 12.36934 | 25499 ft | 447 kts | 22° |
| 2026-05-07 05:42 | 49.33408 | 12.38738 | 25846 ft | 450 kts | 22° |
| 2026-05-07 05:42 | 49.36322 | 12.40550 | 26185 ft | 454 kts | 22° |
| 2026-05-07 05:43 | 49.39260 | 12.42378 | 26517 ft | 457 kts | 22° |
| 2026-05-07 05:43 | 49.42213 | 12.44219 | 26847 ft | 460 kts | 22° |
| 2026-05-07 05:43 | 49.45196 | 12.46087 | 27162 ft | 464 kts | 22° |
| 2026-05-07 05:43 | 49.48192 | 12.47972 | 27482 ft | 468 kts | 22° |
| 2026-05-07 05:44 | 49.51212 | 12.49884 | 27794 ft | 471 kts | 22° |
| 2026-05-07 05:44 | 49.54256 | 12.51812 | 28097 ft | 475 kts | 22° |
| 2026-05-07 05:44 | 49.57327 | 12.53753 | 28395 ft | 478 kts | 22° |
| 2026-05-07 05:44 | 49.60415 | 12.55702 | 28681 ft | 482 kts | 22° |
| 2026-05-07 05:45 | 49.63534 | 12.57665 | 28877 ft | 485 kts | 22° |
| 2026-05-07 05:45 | 49.66623 | 12.59610 | 28908 ft | 474 kts | 22° |
| 2026-05-07 05:45 | 49.69662 | 12.61524 | 28908 ft | 470 kts | 22° |
| 2026-05-07 05:46 | 49.74716 | 12.64723 | 28902 ft | 467 kts | 22° |
| 2026-05-07 05:46 | 49.80720 | 12.68549 | 28904 ft | 466 kts | 22° |
| 2026-05-07 05:47 | 49.86716 | 12.72380 | 28892 ft | 466 kts | 22° |
| 2026-05-07 05:47 | 49.92841 | 12.76306 | 28900 ft | 487 kts | 22° |
| 2026-05-07 05:48 | 49.99176 | 12.80385 | 28898 ft | 496 kts | 22° |
| 2026-05-07 05:48 | 50.05569 | 12.84493 | 28891 ft | 497 kts | 22° |
| 2026-05-07 05:49 | 50.11960 | 12.88610 | 28893 ft | 497 kts | 22° |
| 2026-05-07 05:49 | 50.18349 | 12.92745 | 28900 ft | 498 kts | 23° |
| 2026-05-07 05:50 | 50.24804 | 12.96938 | 28892 ft | 508 kts | 23° |
| 2026-05-07 05:50 | 50.31350 | 13.01191 | 28885 ft | 511 kts | 22° |
| 2026-05-07 05:51 | 50.37913 | 13.05473 | 28878 ft | 511 kts | 23° |
| 2026-05-07 05:51 | 50.44478 | 13.09784 | 28866 ft | 511 kts | 23° |
| 2026-05-07 05:52 | 50.51026 | 13.14115 | 28861 ft | 511 kts | 24° |
| 2026-05-07 05:52 | 50.57427 | 13.18931 | 28862 ft | 510 kts | 28° |
| 2026-05-07 05:53 | 50.63690 | 13.24168 | 28865 ft | 509 kts | 29° |
| 2026-05-07 05:53 | 50.69952 | 13.29409 | 28871 ft | 509 kts | 28° |
| 2026-05-07 05:54 | 50.76248 | 13.34525 | 28875 ft | 509 kts | 27° |
| 2026-05-07 05:54 | 50.82552 | 13.39582 | 28878 ft | 508 kts | 27° |
| 2026-05-07 05:55 | 50.88848 | 13.44670 | 28886 ft | 508 kts | 28° |
| 2026-05-07 05:55 | 50.95315 | 13.48937 | 28764 ft | 492 kts | 13° |
| 2026-05-07 05:55 | 50.98597 | 13.49973 | 27863 ft | 474 kts | 9° |
| 2026-05-07 05:56 | 51.01794 | 13.50848 | 26815 ft | 459 kts | 9° |
| 2026-05-07 05:56 | 51.04870 | 13.51651 | 26361 ft | 434 kts | 8° |
| 2026-05-07 05:56 | 51.07823 | 13.52409 | 26107 ft | 427 kts | 8° |
| 2026-05-07 05:56 | 51.10743 | 13.53166 | 25854 ft | 421 kts | 9° |
| 2026-05-07 05:57 | 51.13579 | 13.53913 | 25488 ft | 409 kts | 9° |
| 2026-05-07 05:57 | 51.16380 | 13.54594 | 25146 ft | 402 kts | 3° |
| 2026-05-07 05:57 | 51.19104 | 13.54372 | 25055 ft | 386 kts | 347° |
| 2026-05-07 05:57 | 51.21590 | 13.53028 | 24970 ft | 375 kts | 330° |
| 2026-05-07 05:58 | 51.23847 | 13.50914 | 24900 ft | 378 kts | 327° |
| 2026-05-07 05:58 | 51.26093 | 13.48739 | 24813 ft | 378 kts | 327° |
| 2026-05-07 05:58 | 51.28341 | 13.46558 | 24730 ft | 377 kts | 327° |
| 2026-05-07 05:58 | 51.30578 | 13.44390 | 24656 ft | 377 kts | 327° |
| 2026-05-07 05:59 | 51.32818 | 13.42221 | 24576 ft | 376 kts | 327° |
| 2026-05-07 05:59 | 51.35055 | 13.40054 | 24502 ft | 375 kts | 327° |
| 2026-05-07 05:59 | 51.37286 | 13.37891 | 24424 ft | 374 kts | 328° |
| 2026-05-07 05:59 | 51.39512 | 13.35735 | 24352 ft | 373 kts | 328° |
| 2026-05-07 06:00 | 51.41734 | 13.33577 | 24208 ft | 374 kts | 328° |
| 2026-05-07 06:00 | 51.43946 | 13.31423 | 23828 ft | 371 kts | 328° |
| 2026-05-07 06:00 | 51.46144 | 13.29281 | 23416 ft | 369 kts | 328° |
| 2026-05-07 06:00 | 51.48330 | 13.27147 | 22975 ft | 366 kts | 328° |
| 2026-05-07 06:01 | 51.50492 | 13.25031 | 22580 ft | 364 kts | 328° |
| 2026-05-07 06:01 | 51.52650 | 13.22918 | 22176 ft | 362 kts | 328° |
| 2026-05-07 06:01 | 51.54791 | 13.20820 | 21767 ft | 359 kts | 327° |
| 2026-05-07 06:01 | 51.56920 | 13.18731 | 21356 ft | 357 kts | 327° |
| 2026-05-07 06:02 | 51.59034 | 13.16650 | 20937 ft | 356 kts | 327° |
| 2026-05-07 06:02 | 51.61139 | 13.14574 | 20520 ft | 353 kts | 327° |
| 2026-05-07 06:02 | 51.63227 | 13.12515 | 20076 ft | 352 kts | 327° |
| 2026-05-07 06:02 | 51.65309 | 13.10460 | 19647 ft | 350 kts | 327° |
| 2026-05-07 06:03 | 51.67383 | 13.08415 | 19219 ft | 348 kts | 327° |
| 2026-05-07 06:03 | 51.69446 | 13.06383 | 18747 ft | 348 kts | 327° |
| 2026-05-07 06:03 | 51.71535 | 13.04325 | 17803 ft | 353 kts | 328° |
| 2026-05-07 06:03 | 51.73617 | 13.02268 | 16803 ft | 348 kts | 328° |
| 2026-05-07 06:04 | 51.75669 | 13.00233 | 15855 ft | 343 kts | 328° |
| 2026-05-07 06:04 | 51.77682 | 12.98231 | 14950 ft | 337 kts | 328° |
| 2026-05-07 06:04 | 51.79661 | 12.96263 | 14084 ft | 331 kts | 328° |
| 2026-05-07 06:04 | 51.81606 | 12.94327 | 13191 ft | 325 kts | 328° |
| 2026-05-07 06:05 | 51.83508 | 12.92439 | 12294 ft | 318 kts | 329° |
| 2026-05-07 06:05 | 51.85380 | 12.90578 | 11421 ft | 313 kts | 329° |
| 2026-05-07 06:05 | 51.87203 | 12.88761 | 10893 ft | 298 kts | 329° |
| 2026-05-07 06:05 | 51.88935 | 12.87030 | 10540 ft | 294 kts | 329° |
| 2026-05-07 06:06 | 51.90676 | 12.85288 | 10186 ft | 293 kts | 329° |
| 2026-05-07 06:06 | 51.92394 | 12.83572 | 9894 ft | 288 kts | 329° |
| 2026-05-07 06:06 | 51.94085 | 12.81881 | 9759 ft | 285 kts | 329° |
| 2026-05-07 06:06 | 51.95792 | 12.80252 | 9630 ft | 284 kts | 336° |
| 2026-05-07 06:07 | 51.97681 | 12.79414 | 9414 ft | 283 kts | 350° |
| 2026-05-07 06:07 | 51.99614 | 12.78871 | 8627 ft | 280 kts | 351° |
| 2026-05-07 06:07 | 52.01518 | 12.78350 | 7945 ft | 276 kts | 351° |
| 2026-05-07 06:07 | 52.03443 | 12.77832 | 7508 ft | 277 kts | 351° |
| 2026-05-07 06:08 | 52.05342 | 12.77324 | 7143 ft | 275 kts | 351° |
| 2026-05-07 06:08 | 52.07202 | 12.76822 | 6765 ft | 270 kts | 351° |
| 2026-05-07 06:08 | 52.09054 | 12.76318 | 6407 ft | 269 kts | 351° |
| 2026-05-07 06:08 | 52.10889 | 12.75818 | 6030 ft | 267 kts | 351° |
| 2026-05-07 06:09 | 52.12720 | 12.75320 | 5668 ft | 266 kts | 351° |
| 2026-05-07 06:09 | 52.14526 | 12.75023 | 5311 ft | 264 kts | 5° |
| 2026-05-07 06:09 | 52.16298 | 12.75853 | 4956 ft | 264 kts | 30° |
| 2026-05-07 06:09 | 52.17645 | 12.77726 | 4834 ft | 259 kts | 52° |
| 2026-05-07 06:10 | 52.18505 | 12.80359 | 4765 ft | 261 kts | 67° |
| 2026-05-07 06:10 | 52.19185 | 12.83099 | 4657 ft | 261 kts | 68° |
| 2026-05-07 06:10 | 52.19847 | 12.85810 | 4539 ft | 260 kts | 68° |
| 2026-05-07 06:10 | 52.20521 | 12.88583 | 4433 ft | 260 kts | 68° |
| 2026-05-07 06:11 | 52.21172 | 12.91316 | 4326 ft | 258 kts | 69° |
| 2026-05-07 06:11 | 52.21815 | 12.94050 | 4218 ft | 258 kts | 68° |
| 2026-05-07 06:11 | 52.22475 | 12.96771 | 4115 ft | 258 kts | 68° |
| 2026-05-07 06:11 | 52.23138 | 12.99486 | 4004 ft | 257 kts | 68° |
| 2026-05-07 06:12 | 52.23786 | 13.02150 | 3897 ft | 248 kts | 68° |
| 2026-05-07 06:12 | 52.24407 | 13.04703 | 3784 ft | 234 kts | 68° |
| 2026-05-07 06:12 | 52.24982 | 13.07076 | 3712 ft | 218 kts | 68° |
| 2026-05-07 06:12 | 52.25518 | 13.09284 | 3616 ft | 202 kts | 68° |
| 2026-05-07 06:13 | 52.26029 | 13.11393 | 3540 ft | 199 kts | 68° |
| 2026-05-07 06:13 | 52.26523 | 13.13437 | 3454 ft | 184 kts | 68° |
| 2026-05-07 06:13 | 52.26969 | 13.15278 | 3390 ft | 164 kts | 68° |
| 2026-05-07 06:13 | 52.27377 | 13.16967 | 3328 ft | 168 kts | 68° |
| 2026-05-07 06:14 | 52.27819 | 13.18799 | 3249 ft | 177 kts | 68° |
| 2026-05-07 06:14 | 52.28273 | 13.20681 | 3168 ft | 179 kts | 68° |
| 2026-05-07 06:14 | 52.28727 | 13.22564 | 3075 ft | 178 kts | 68° |
| 2026-05-07 06:14 | 52.29178 | 13.24441 | 3018 ft | 177 kts | 68° |
| 2026-05-07 06:15 | 52.29630 | 13.26316 | 2873 ft | 175 kts | 68° |
| 2026-05-07 06:15 | 52.30056 | 13.28089 | 2667 ft | 160 kts | 68° |
| 2026-05-07 06:15 | 52.30399 | 13.29520 | 2490 ft | 144 kts | 68° |
| 2026-05-07 06:15 | 52.30752 | 13.30991 | 2300 ft | 136 kts | 68° |
| 2026-05-07 06:16 | 52.31094 | 13.32416 | 2120 ft | 134 kts | 68° |
| 2026-05-07 06:16 | 52.31432 | 13.33826 | 1930 ft | 132 kts | 66° |
| 2026-05-07 06:16 | 52.31767 | 13.35222 | 1758 ft | 131 kts | 66° |
| 2026-05-07 06:16 | 52.32099 | 13.36611 | 1569 ft | 132 kts | 67° |
| 2026-05-07 06:17 | 52.32432 | 13.38003 | 1381 ft | 132 kts | 67° |
| 2026-05-07 06:17 | 52.32764 | 13.39390 | 1196 ft | 131 kts | 67° |
| 2026-05-07 06:17 | 52.33095 | 13.40778 | 1007 ft | 131 kts | 67° |
| 2026-05-07 06:17 | 52.33425 | 13.42162 | 801 ft | 130 kts | 68° |
| 2026-05-07 06:18 | 52.33756 | 13.43559 | 642 ft | 132 kts | 67° |
| 2026-05-07 06:18 | 52.34085 | 13.44953 | 458 ft | 131 kts | 68° |
| 2026-05-07 06:18 | 52.34417 | 13.46342 | 274 ft | 132 kts | 66° |
| 2026-05-07 06:18 | 52.34747 | 13.47710 | 173 ft | 122 kts | 66° |
| 2026-05-07 06:19 | 52.35015 | 13.48824 | 159 ft | 84 kts | 69° |
| 2026-05-07 06:19 | 52.35165 | 13.49449 | 162 ft | 34 kts | 68° |
| 2026-05-07 06:19 | 52.35220 | 13.49686 | 158 ft | 25 kts | 66° |
| 2026-05-07 06:19 | 52.35320 | 13.49917 | 154 ft | 24 kts | 46° |
| 2026-05-07 06:20 | 52.35430 | 13.50064 | 155 ft | 19 kts | 39° |
| 2026-05-07 06:20 | 52.35524 | 13.50183 | 155 ft | 12 kts | 34° |
| 2026-05-07 06:20 | 52.35604 | 13.50192 | 157 ft | 12 kts | 347° |
| 2026-05-07 06:20 | 52.35677 | 13.50221 | 157 ft | 12 kts | 63° |
| 2026-05-07 06:21 | 52.35712 | 13.50364 | 157 ft | 14 kts | 69° |
| 2026-05-07 06:21 | 52.35751 | 13.50528 | 156 ft | 17 kts | 69° |
| 2026-05-07 06:21 | 52.35799 | 13.50723 | 154 ft | 15 kts | 68° |
| 2026-05-07 06:21 | 52.35881 | 13.50756 | 155 ft | 14 kts | 339° |
| 2026-05-07 06:22 | 52.35978 | 13.50697 | 155 ft | 16 kts | 340° |
| 2026-05-07 06:22 | 52.36106 | 13.50815 | 156 ft | 3 kts | 70° |
| 2026-05-07 06:22 | 52.36107 | 13.50820 | 157 ft | 0 kts | 70° |